sensor_id;sensor_type;location;lat;lon;timestamp;temperature;humidity
17346;DHT22;8790;53.590;10.002;2023-05-09T00:00:48;14.60;92.10
17346;DHT22;8790;53.590;10.002;2023-05-09T00:03:21;14.60;92.10
17346;DHT22;8790;53.590;10.002;2023-05-09T00:05:52;14.50;92.30
17346;DHT22;8790;53.590;10.002;2023-05-09T00:08:24;14.50;92.20
17346;DHT22;8790;53.590;10.002;2023-05-09T00:10:56;14.40;92.40
17346;DHT22;8790;53.590;10.002;2023-05-09T00:13:28;14.40;92.60
17346;DHT22;8790;53.590;10.002;2023-05-09T00:16:00;14.30;92.70
17346;DHT22;8790;53.590;10.002;2023-05-09T00:18:33;14.30;92.60
17346;DHT22;8790;53.590;10.002;2023-05-09T00:21:06;14.20;92.60
17346;DHT22;8790;53.590;10.002;2023-05-09T00:23:38;14.20;92.70
17346;DHT22;8790;53.590;10.002;2023-05-09T00:26:10;14.30;92.70
17346;DHT22;8790;53.590;10.002;2023-05-09T00:28:45;14.30;92.60
17346;DHT22;8790;53.590;10.002;2023-05-09T00:31:17;14.30;92.70
17346;DHT22;8790;53.590;10.002;2023-05-09T00:33:50;14.20;92.70
17346;DHT22;8790;53.590;10.002;2023-05-09T00:36:21;14.20;92.80
17346;DHT22;8790;53.590;10.002;2023-05-09T00:38:53;14.20;92.90
17346;DHT22;8790;53.590;10.002;2023-05-09T00:41:25;14.10;92.80
17346;DHT22;8790;53.590;10.002;2023-05-09T00:43:57;14.10;92.90
17346;DHT22;8790;53.590;10.002;2023-05-09T00:46:29;14.10;93.00
17346;DHT22;8790;53.590;10.002;2023-05-09T00:49:02;14.10;93.00
17346;DHT22;8790;53.590;10.002;2023-05-09T00:51:35;14.00;93.10
17346;DHT22;8790;53.590;10.002;2023-05-09T00:54:08;14.00;93.20
17346;DHT22;8790;53.590;10.002;2023-05-09T00:56:41;14.00;93.30
17346;DHT22;8790;53.590;10.002;2023-05-09T00:59:13;14.00;93.30
17346;DHT22;8790;53.590;10.002;2023-05-09T01:01:45;13.90;93.40
17346;DHT22;8790;53.590;10.002;2023-05-09T01:04:18;13.80;93.50
17346;DHT22;8790;53.590;10.002;2023-05-09T01:06:54;13.70;93.70
17346;DHT22;8790;53.590;10.002;2023-05-09T01:09:34;13.70;93.80
17346;DHT22;8790;53.590;10.002;2023-05-09T01:12:12;13.70;93.70
17346;DHT22;8790;53.590;10.002;2023-05-09T01:14:54;13.80;93.70
17346;DHT22;8790;53.590;10.002;2023-05-09T01:17:33;13.80;93.80
17346;DHT22;8790;53.590;10.002;2023-05-09T01:20:13;13.80;93.70
17346;DHT22;8790;53.590;10.002;2023-05-09T01:23:10;13.60;93.90
17346;DHT22;8790;53.590;10.002;2023-05-09T01:25:53;13.70;93.90
17346;DHT22;8790;53.590;10.002;2023-05-09T01:28:42;13.70;94.00
17346;DHT22;8790;53.590;10.002;2023-05-09T01:31:21;13.70;94.10
17346;DHT22;8790;53.590;10.002;2023-05-09T01:33:57;13.60;94.10
17346;DHT22;8790;53.590;10.002;2023-05-09T01:36:31;13.70;94.10
17346;DHT22;8790;53.590;10.002;2023-05-09T01:39:05;13.60;94.00
17346;DHT22;8790;53.590;10.002;2023-05-09T01:41:38;13.50;94.20
17346;DHT22;8790;53.590;10.002;2023-05-09T01:44:10;13.60;94.10
17346;DHT22;8790;53.590;10.002;2023-05-09T01:46:44;13.60;94.30
17346;DHT22;8790;53.590;10.002;2023-05-09T01:49:17;13.50;94.30
17346;DHT22;8790;53.590;10.002;2023-05-09T01:51:51;13.50;94.40
17346;DHT22;8790;53.590;10.002;2023-05-09T01:54:24;13.40;94.50
17346;DHT22;8790;53.590;10.002;2023-05-09T01:56:58;13.40;94.50
17346;DHT22;8790;53.590;10.002;2023-05-09T01:59:31;13.30;94.70
17346;DHT22;8790;53.590;10.002;2023-05-09T02:02:05;13.30;94.70
17346;DHT22;8790;53.590;10.002;2023-05-09T02:04:39;13.30;95.30
17346;DHT22;8790;53.590;10.002;2023-05-09T02:07:12;13.30;94.90
17346;DHT22;8790;53.590;10.002;2023-05-09T02:09:45;13.30;94.90
17346;DHT22;8790;53.590;10.002;2023-05-09T02:12:17;13.20;95.40
17346;DHT22;8790;53.590;10.002;2023-05-09T02:14:49;13.10;95.20
17346;DHT22;8790;53.590;10.002;2023-05-09T02:17:22;13.10;95.30
17346;DHT22;8790;53.590;10.002;2023-05-09T02:19:54;13.00;95.40
17346;DHT22;8790;53.590;10.002;2023-05-09T02:22:26;13.10;95.50
17346;DHT22;8790;53.590;10.002;2023-05-09T02:24:58;13.10;95.50
17346;DHT22;8790;53.590;10.002;2023-05-09T02:27:30;13.10;95.50
17346;DHT22;8790;53.590;10.002;2023-05-09T02:30:05;13.10;95.40
17346;DHT22;8790;53.590;10.002;2023-05-09T02:32:42;13.10;95.50
17346;DHT22;8790;53.590;10.002;2023-05-09T02:35:15;13.00;95.70
17346;DHT22;8790;53.590;10.002;2023-05-09T02:37:47;12.90;95.90
17346;DHT22;8790;53.590;10.002;2023-05-09T02:40:20;13.00;95.90
17346;DHT22;8790;53.590;10.002;2023-05-09T02:42:52;12.90;96.00
17346;DHT22;8790;53.590;10.002;2023-05-09T02:45:25;12.90;96.00
17346;DHT22;8790;53.590;10.002;2023-05-09T02:47:58;12.90;96.00
17346;DHT22;8790;53.590;10.002;2023-05-09T02:50:30;12.80;96.20
17346;DHT22;8790;53.590;10.002;2023-05-09T02:53:02;12.80;96.30
17346;DHT22;8790;53.590;10.002;2023-05-09T02:55:34;12.80;96.30
17346;DHT22;8790;53.590;10.002;2023-05-09T02:58:07;12.80;96.40
17346;DHT22;8790;53.590;10.002;2023-05-09T03:00:39;12.80;96.40
17346;DHT22;8790;53.590;10.002;2023-05-09T03:03:13;12.70;96.60
17346;DHT22;8790;53.590;10.002;2023-05-09T03:05:45;12.70;96.70
17346;DHT22;8790;53.590;10.002;2023-05-09T03:08:17;12.70;96.70
17346;DHT22;8790;53.590;10.002;2023-05-09T03:10:49;12.70;96.80
17346;DHT22;8790;53.590;10.002;2023-05-09T03:13:20;12.60;96.90
17346;DHT22;8790;53.590;10.002;2023-05-09T03:15:52;12.60;96.90
17346;DHT22;8790;53.590;10.002;2023-05-09T03:18:25;12.60;97.00
17346;DHT22;8790;53.590;10.002;2023-05-09T03:20:58;12.60;97.20
17346;DHT22;8790;53.590;10.002;2023-05-09T03:23:30;12.50;97.30
17346;DHT22;8790;53.590;10.002;2023-05-09T03:26:02;12.50;97.30
17346;DHT22;8790;53.590;10.002;2023-05-09T03:28:34;12.50;97.40
17346;DHT22;8790;53.590;10.002;2023-05-09T03:31:08;12.50;97.50
17346;DHT22;8790;53.590;10.002;2023-05-09T03:33:41;12.50;97.50
17346;DHT22;8790;53.590;10.002;2023-05-09T03:36:14;12.50;97.50
17346;DHT22;8790;53.590;10.002;2023-05-09T03:38:47;12.50;97.60
17346;DHT22;8790;53.590;10.002;2023-05-09T03:41:19;12.50;97.60
17346;DHT22;8790;53.590;10.002;2023-05-09T03:43:52;12.40;97.70
17346;DHT22;8790;53.590;10.002;2023-05-09T03:46:24;12.30;97.90
17346;DHT22;8790;53.590;10.002;2023-05-09T03:48:57;12.30;98.00
17346;DHT22;8790;53.590;10.002;2023-05-09T03:51:29;12.30;98.10
17346;DHT22;8790;53.590;10.002;2023-05-09T03:54:02;12.40;98.10
17346;DHT22;8790;53.590;10.002;2023-05-09T03:56:35;12.30;98.10
17346;DHT22;8790;53.590;10.002;2023-05-09T03:59:07;12.40;98.20
17346;DHT22;8790;53.590;10.002;2023-05-09T04:01:39;12.20;98.40
17346;DHT22;8790;53.590;10.002;2023-05-09T04:04:13;12.30;98.40
17346;DHT22;8790;53.590;10.002;2023-05-09T04:06:45;12.30;98.30
17346;DHT22;8790;53.590;10.002;2023-05-09T04:09:20;12.40;98.40
17346;DHT22;8790;53.590;10.002;2023-05-09T04:11:52;12.30;98.50
17346;DHT22;8790;53.590;10.002;2023-05-09T04:14:24;12.20;98.70
17346;DHT22;8790;53.590;10.002;2023-05-09T04:16:56;12.10;98.80
17346;DHT22;8790;53.590;10.002;2023-05-09T04:19:29;12.00;99.00
17346;DHT22;8790;53.590;10.002;2023-05-09T04:22:01;12.00;99.10
17346;DHT22;8790;53.590;10.002;2023-05-09T04:24:32;12.10;99.10
17346;DHT22;8790;53.590;10.002;2023-05-09T04:27:05;12.00;99.30
17346;DHT22;8790;53.590;10.002;2023-05-09T04:29:38;12.00;99.30
17346;DHT22;8790;53.590;10.002;2023-05-09T04:32:11;12.00;99.40
17346;DHT22;8790;53.590;10.002;2023-05-09T04:34:44;12.00;99.40
17346;DHT22;8790;53.590;10.002;2023-05-09T04:37:21;11.90;99.60
17346;DHT22;8790;53.590;10.002;2023-05-09T04:39:54;11.90;99.80
17346;DHT22;8790;53.590;10.002;2023-05-09T04:42:31;11.90;99.70
17346;DHT22;8790;53.590;10.002;2023-05-09T04:45:05;11.90;99.80
17346;DHT22;8790;53.590;10.002;2023-05-09T04:47:37;12.00;99.80
17346;DHT22;8790;53.590;10.002;2023-05-09T04:50:11;12.00;99.90
17346;DHT22;8790;53.590;10.002;2023-05-09T04:52:43;12.00;99.90
17346;DHT22;8790;53.590;10.002;2023-05-09T04:55:14;11.90;99.90
17346;DHT22;8790;53.590;10.002;2023-05-09T04:57:49;11.90;99.90
17346;DHT22;8790;53.590;10.002;2023-05-09T05:00:21;11.90;99.90
17346;DHT22;8790;53.590;10.002;2023-05-09T05:02:53;11.90;99.90
17346;DHT22;8790;53.590;10.002;2023-05-09T05:05:26;11.90;99.90
17346;DHT22;8790;53.590;10.002;2023-05-09T05:07:58;12.00;99.90
17346;DHT22;8790;53.590;10.002;2023-05-09T05:10:36;12.00;99.90
17346;DHT22;8790;53.590;10.002;2023-05-09T05:13:11;12.00;99.90
17346;DHT22;8790;53.590;10.002;2023-05-09T05:15:47;12.00;99.90
17346;DHT22;8790;53.590;10.002;2023-05-09T05:18:19;12.00;99.90
17346;DHT22;8790;53.590;10.002;2023-05-09T05:20:53;12.10;99.90
17346;DHT22;8790;53.590;10.002;2023-05-09T05:23:25;12.20;99.90
17346;DHT22;8790;53.590;10.002;2023-05-09T05:25:58;12.20;99.90
17346;DHT22;8790;53.590;10.002;2023-05-09T05:28:31;12.10;99.90
17346;DHT22;8790;53.590;10.002;2023-05-09T05:31:02;12.20;99.90
17346;DHT22;8790;53.590;10.002;2023-05-09T05:33:34;12.10;99.90
17346;DHT22;8790;53.590;10.002;2023-05-09T05:36:08;12.10;99.90
17346;DHT22;8790;53.590;10.002;2023-05-09T05:38:40;12.10;99.90
17346;DHT22;8790;53.590;10.002;2023-05-09T05:41:12;12.20;99.90
17346;DHT22;8790;53.590;10.002;2023-05-09T05:43:45;12.20;99.90
17346;DHT22;8790;53.590;10.002;2023-05-09T05:46:18;12.20;99.90
17346;DHT22;8790;53.590;10.002;2023-05-09T05:48:51;12.20;99.90
17346;DHT22;8790;53.590;10.002;2023-05-09T05:51:24;12.30;99.90
17346;DHT22;8790;53.590;10.002;2023-05-09T05:53:55;12.30;99.90
17346;DHT22;8790;53.590;10.002;2023-05-09T05:56:28;12.20;99.90
17346;DHT22;8790;53.590;10.002;2023-05-09T05:59:01;12.30;99.90
17346;DHT22;8790;53.590;10.002;2023-05-09T06:01:32;12.20;99.90
17346;DHT22;8790;53.590;10.002;2023-05-09T06:04:04;12.20;99.90
17346;DHT22;8790;53.590;10.002;2023-05-09T06:06:38;12.30;99.90
17346;DHT22;8790;53.590;10.002;2023-05-09T06:09:10;12.30;99.90
17346;DHT22;8790;53.590;10.002;2023-05-09T06:11:42;12.30;99.90
17346;DHT22;8790;53.590;10.002;2023-05-09T06:14:13;12.40;99.90
17346;DHT22;8790;53.590;10.002;2023-05-09T06:16:45;12.40;99.90
17346;DHT22;8790;53.590;10.002;2023-05-09T06:19:18;12.40;99.90
17346;DHT22;8790;53.590;10.002;2023-05-09T06:21:52;12.40;99.90
17346;DHT22;8790;53.590;10.002;2023-05-09T06:24:24;12.40;99.90
17346;DHT22;8790;53.590;10.002;2023-05-09T06:26:56;12.50;99.90
17346;DHT22;8790;53.590;10.002;2023-05-09T06:29:28;12.50;99.90
17346;DHT22;8790;53.590;10.002;2023-05-09T06:32:00;12.60;99.90
17346;DHT22;8790;53.590;10.002;2023-05-09T06:34:32;12.60;99.90
17346;DHT22;8790;53.590;10.002;2023-05-09T06:37:05;12.70;99.90
17346;DHT22;8790;53.590;10.002;2023-05-09T06:39:36;12.70;99.90
17346;DHT22;8790;53.590;10.002;2023-05-09T06:42:08;12.80;99.90
17346;DHT22;8790;53.590;10.002;2023-05-09T06:44:42;12.80;99.90
17346;DHT22;8790;53.590;10.002;2023-05-09T06:47:14;12.90;99.90
17346;DHT22;8790;53.590;10.002;2023-05-09T06:49:46;13.00;99.90
17346;DHT22;8790;53.590;10.002;2023-05-09T06:52:19;13.00;99.90
17346;DHT22;8790;53.590;10.002;2023-05-09T06:54:51;13.00;99.90
17346;DHT22;8790;53.590;10.002;2023-05-09T06:57:22;13.10;99.90
17346;DHT22;8790;53.590;10.002;2023-05-09T06:59:54;13.20;99.90
17346;DHT22;8790;53.590;10.002;2023-05-09T07:02:26;13.30;99.90
17346;DHT22;8790;53.590;10.002;2023-05-09T07:04:57;13.30;99.90
17346;DHT22;8790;53.590;10.002;2023-05-09T07:07:32;13.40;99.90
17346;DHT22;8790;53.590;10.002;2023-05-09T07:10:04;13.50;99.90
17346;DHT22;8790;53.590;10.002;2023-05-09T07:12:36;13.60;99.90
17346;DHT22;8790;53.590;10.002;2023-05-09T07:15:09;13.70;99.90
17346;DHT22;8790;53.590;10.002;2023-05-09T07:17:40;13.80;99.90
17346;DHT22;8790;53.590;10.002;2023-05-09T07:20:12;13.90;99.90
17346;DHT22;8790;53.590;10.002;2023-05-09T07:22:45;14.00;99.90
17346;DHT22;8790;53.590;10.002;2023-05-09T07:25:17;14.10;99.90
17346;DHT22;8790;53.590;10.002;2023-05-09T07:27:49;14.20;99.90
17346;DHT22;8790;53.590;10.002;2023-05-09T07:30:21;14.30;99.90
17346;DHT22;8790;53.590;10.002;2023-05-09T07:32:52;14.40;99.90
17346;DHT22;8790;53.590;10.002;2023-05-09T07:35:24;14.50;99.90
17346;DHT22;8790;53.590;10.002;2023-05-09T07:37:57;14.60;99.90
17346;DHT22;8790;53.590;10.002;2023-05-09T07:40:29;14.70;99.90
17346;DHT22;8790;53.590;10.002;2023-05-09T07:43:01;14.80;99.90
17346;DHT22;8790;53.590;10.002;2023-05-09T07:45:33;14.90;99.90
17346;DHT22;8790;53.590;10.002;2023-05-09T07:48:05;15.00;99.90
17346;DHT22;8790;53.590;10.002;2023-05-09T07:50:37;15.10;99.90
17346;DHT22;8790;53.590;10.002;2023-05-09T07:53:10;15.20;99.90
17346;DHT22;8790;53.590;10.002;2023-05-09T07:55:42;15.30;99.90
17346;DHT22;8790;53.590;10.002;2023-05-09T07:58:17;15.40;99.90
17346;DHT22;8790;53.590;10.002;2023-05-09T08:00:48;15.50;99.90
17346;DHT22;8790;53.590;10.002;2023-05-09T08:03:20;15.70;99.90
17346;DHT22;8790;53.590;10.002;2023-05-09T08:05:52;15.80;99.40
17346;DHT22;8790;53.590;10.002;2023-05-09T08:08:26;15.80;99.00
17346;DHT22;8790;53.590;10.002;2023-05-09T08:10:58;15.90;99.10
17346;DHT22;8790;53.590;10.002;2023-05-09T08:13:29;16.00;98.90
17346;DHT22;8790;53.590;10.002;2023-05-09T08:16:01;16.10;99.00
17346;DHT22;8790;53.590;10.002;2023-05-09T08:18:33;16.20;98.80
17346;DHT22;8790;53.590;10.002;2023-05-09T08:21:05;16.20;98.70
17346;DHT22;8790;53.590;10.002;2023-05-09T08:23:38;16.30;98.70
17346;DHT22;8790;53.590;10.002;2023-05-09T08:26:10;16.40;98.20
17346;DHT22;8790;53.590;10.002;2023-05-09T08:28:42;16.50;98.20
17346;DHT22;8790;53.590;10.002;2023-05-09T08:31:14;16.60;98.10
17346;DHT22;8790;53.590;10.002;2023-05-09T08:33:45;16.60;97.90
17346;DHT22;8790;53.590;10.002;2023-05-09T08:36:17;16.70;97.80
17346;DHT22;8790;53.590;10.002;2023-05-09T08:38:50;16.80;97.70
17346;DHT22;8790;53.590;10.002;2023-05-09T08:41:24;16.90;97.80
17346;DHT22;8790;53.590;10.002;2023-05-09T08:43:57;17.00;98.30
17346;DHT22;8790;53.590;10.002;2023-05-09T08:46:32;17.10;97.80
17346;DHT22;8790;53.590;10.002;2023-05-09T08:49:06;17.10;97.70
17346;DHT22;8790;53.590;10.002;2023-05-09T08:51:39;17.20;97.70
17346;DHT22;8790;53.590;10.002;2023-05-09T08:54:12;17.30;97.20
17346;DHT22;8790;53.590;10.002;2023-05-09T08:56:44;17.30;97.00
17346;DHT22;8790;53.590;10.002;2023-05-09T08:59:17;17.30;96.80
17346;DHT22;8790;53.590;10.002;2023-05-09T09:01:49;17.40;97.00
17346;DHT22;8790;53.590;10.002;2023-05-09T09:04:21;17.40;96.80
17346;DHT22;8790;53.590;10.002;2023-05-09T09:06:53;17.50;96.70
17346;DHT22;8790;53.590;10.002;2023-05-09T09:09:27;17.60;96.50
17346;DHT22;8790;53.590;10.002;2023-05-09T09:11:59;17.60;96.40
17346;DHT22;8790;53.590;10.002;2023-05-09T09:14:34;17.50;96.10
17346;DHT22;8790;53.590;10.002;2023-05-09T09:17:09;17.60;96.10
17346;DHT22;8790;53.590;10.002;2023-05-09T09:19:44;17.60;96.30
17346;DHT22;8790;53.590;10.002;2023-05-09T09:22:18;17.70;96.50
17346;DHT22;8790;53.590;10.002;2023-05-09T09:24:52;17.80;96.30
17346;DHT22;8790;53.590;10.002;2023-05-09T09:27:24;17.80;95.90
17346;DHT22;8790;53.590;10.002;2023-05-09T09:30:05;17.80;95.70
17346;DHT22;8790;53.590;10.002;2023-05-09T09:32:37;17.80;95.90
17346;DHT22;8790;53.590;10.002;2023-05-09T09:35:10;17.90;95.50
17346;DHT22;8790;53.590;10.002;2023-05-09T09:37:42;17.90;95.60
17346;DHT22;8790;53.590;10.002;2023-05-09T09:40:15;18.00;95.60
17346;DHT22;8790;53.590;10.002;2023-05-09T09:42:47;18.00;95.30
17346;DHT22;8790;53.590;10.002;2023-05-09T09:45:19;18.00;95.30
17346;DHT22;8790;53.590;10.002;2023-05-09T09:47:52;18.10;95.00
17346;DHT22;8790;53.590;10.002;2023-05-09T09:50:23;18.10;95.30
17346;DHT22;8790;53.590;10.002;2023-05-09T09:52:56;18.20;95.50
17346;DHT22;8790;53.590;10.002;2023-05-09T09:55:32;18.30;95.00
17346;DHT22;8790;53.590;10.002;2023-05-09T09:58:15;18.30;94.60
17346;DHT22;8790;53.590;10.002;2023-05-09T10:01:03;18.40;94.40
17346;DHT22;8790;53.590;10.002;2023-05-09T10:03:36;18.40;93.80
17346;DHT22;8790;53.590;10.002;2023-05-09T10:06:09;18.50;93.80
17346;DHT22;8790;53.590;10.002;2023-05-09T10:08:42;18.50;93.60
17346;DHT22;8790;53.590;10.002;2023-05-09T10:11:17;18.60;93.10
17346;DHT22;8790;53.590;10.002;2023-05-09T10:13:49;18.60;93.10
17346;DHT22;8790;53.590;10.002;2023-05-09T10:16:22;18.60;93.00
17346;DHT22;8790;53.590;10.002;2023-05-09T10:18:54;18.70;92.90
17346;DHT22;8790;53.590;10.002;2023-05-09T10:21:26;18.80;92.80
17346;DHT22;8790;53.590;10.002;2023-05-09T10:23:58;18.80;92.60
17346;DHT22;8790;53.590;10.002;2023-05-09T10:26:35;18.80;93.00
17346;DHT22;8790;53.590;10.002;2023-05-09T10:29:11;18.80;92.70
17346;DHT22;8790;53.590;10.002;2023-05-09T10:31:53;18.80;92.60
17346;DHT22;8790;53.590;10.002;2023-05-09T10:34:29;18.90;92.40
17346;DHT22;8790;53.590;10.002;2023-05-09T10:37:03;19.00;92.60
17346;DHT22;8790;53.590;10.002;2023-05-09T10:39:35;19.10;92.50
17346;DHT22;8790;53.590;10.002;2023-05-09T10:42:09;19.10;92.70
17346;DHT22;8790;53.590;10.002;2023-05-09T10:44:41;19.10;92.40
17346;DHT22;8790;53.590;10.002;2023-05-09T10:47:13;19.10;92.20
17346;DHT22;8790;53.590;10.002;2023-05-09T10:49:45;19.10;92.00
17346;DHT22;8790;53.590;10.002;2023-05-09T10:52:20;19.10;92.00
17346;DHT22;8790;53.590;10.002;2023-05-09T10:54:57;19.30;92.10
17346;DHT22;8790;53.590;10.002;2023-05-09T10:57:32;19.20;91.60
17346;DHT22;8790;53.590;10.002;2023-05-09T11:00:04;19.30;91.70
17346;DHT22;8790;53.590;10.002;2023-05-09T11:02:37;19.30;91.50
17346;DHT22;8790;53.590;10.002;2023-05-09T11:05:13;19.40;92.00
17346;DHT22;8790;53.590;10.002;2023-05-09T11:07:45;19.40;91.50
17346;DHT22;8790;53.590;10.002;2023-05-09T11:10:17;19.50;91.60
17346;DHT22;8790;53.590;10.002;2023-05-09T11:12:57;19.60;91.40
17346;DHT22;8790;53.590;10.002;2023-05-09T11:15:29;19.60;91.00
17346;DHT22;8790;53.590;10.002;2023-05-09T11:18:05;19.60;91.30
17346;DHT22;8790;53.590;10.002;2023-05-09T11:20:42;19.70;91.40
17346;DHT22;8790;53.590;10.002;2023-05-09T11:23:15;19.70;91.30
17346;DHT22;8790;53.590;10.002;2023-05-09T11:25:48;19.80;91.20
17346;DHT22;8790;53.590;10.002;2023-05-09T11:28:32;19.80;91.20
17346;DHT22;8790;53.590;10.002;2023-05-09T11:31:11;19.80;91.00
17346;DHT22;8790;53.590;10.002;2023-05-09T11:33:46;19.80;91.10
17346;DHT22;8790;53.590;10.002;2023-05-09T11:36:28;20.00;91.00
17346;DHT22;8790;53.590;10.002;2023-05-09T11:39:04;20.00;90.80
17346;DHT22;8790;53.590;10.002;2023-05-09T11:41:42;20.00;90.10
17346;DHT22;8790;53.590;10.002;2023-05-09T11:44:17;20.00;90.30
17346;DHT22;8790;53.590;10.002;2023-05-09T11:46:49;20.10;89.10
17346;DHT22;8790;53.590;10.002;2023-05-09T11:49:21;20.10;89.50
17346;DHT22;8790;53.590;10.002;2023-05-09T11:51:52;20.10;89.60
17346;DHT22;8790;53.590;10.002;2023-05-09T11:54:24;20.10;89.50
17346;DHT22;8790;53.590;10.002;2023-05-09T11:56:57;20.10;90.00
17346;DHT22;8790;53.590;10.002;2023-05-09T11:59:32;20.20;90.10
17346;DHT22;8790;53.590;10.002;2023-05-09T12:02:04;20.30;90.00
17346;DHT22;8790;53.590;10.002;2023-05-09T12:04:36;20.30;90.00
17346;DHT22;8790;53.590;10.002;2023-05-09T12:07:10;20.30;89.20
17346;DHT22;8790;53.590;10.002;2023-05-09T12:09:42;20.30;89.20
17346;DHT22;8790;53.590;10.002;2023-05-09T12:12:14;20.30;89.30
17346;DHT22;8790;53.590;10.002;2023-05-09T12:14:51;20.40;89.30
17346;DHT22;8790;53.590;10.002;2023-05-09T12:17:23;20.40;89.20
17346;DHT22;8790;53.590;10.002;2023-05-09T12:19:57;20.40;89.40
17346;DHT22;8790;53.590;10.002;2023-05-09T12:22:29;20.40;89.30
17346;DHT22;8790;53.590;10.002;2023-05-09T12:25:04;20.40;89.50
17346;DHT22;8790;53.590;10.002;2023-05-09T12:27:38;20.50;90.20
17346;DHT22;8790;53.590;10.002;2023-05-09T12:30:12;20.70;90.10
17346;DHT22;8790;53.590;10.002;2023-05-09T12:32:45;20.60;89.00
17346;DHT22;8790;53.590;10.002;2023-05-09T12:35:20;20.60;88.70
17346;DHT22;8790;53.590;10.002;2023-05-09T12:37:57;20.60;88.80
17346;DHT22;8790;53.590;10.002;2023-05-09T12:40:29;20.60;88.30
17346;DHT22;8790;53.590;10.002;2023-05-09T12:43:00;20.50;88.30
17346;DHT22;8790;53.590;10.002;2023-05-09T12:45:37;20.50;88.70
17346;DHT22;8790;53.590;10.002;2023-05-09T12:48:09;20.50;89.40
17346;DHT22;8790;53.590;10.002;2023-05-09T12:50:46;20.60;89.40
17346;DHT22;8790;53.590;10.002;2023-05-09T12:53:23;20.60;88.50
17346;DHT22;8790;53.590;10.002;2023-05-09T12:55:55;20.60;89.10
17346;DHT22;8790;53.590;10.002;2023-05-09T12:58:29;20.70;89.60
17346;DHT22;8790;53.590;10.002;2023-05-09T13:01:04;20.70;89.00
17346;DHT22;8790;53.590;10.002;2023-05-09T13:03:36;20.70;89.00
17346;DHT22;8790;53.590;10.002;2023-05-09T13:06:11;20.70;88.40
17346;DHT22;8790;53.590;10.002;2023-05-09T13:08:43;20.70;89.00
17346;DHT22;8790;53.590;10.002;2023-05-09T13:11:15;20.70;88.90
17346;DHT22;8790;53.590;10.002;2023-05-09T13:13:48;20.60;88.40
17346;DHT22;8790;53.590;10.002;2023-05-09T13:16:21;20.70;88.70
17346;DHT22;8790;53.590;10.002;2023-05-09T13:18:53;20.70;88.90
17346;DHT22;8790;53.590;10.002;2023-05-09T13:21:25;20.70;88.30
17346;DHT22;8790;53.590;10.002;2023-05-09T13:23:57;20.70;87.60
17346;DHT22;8790;53.590;10.002;2023-05-09T13:26:28;20.80;88.00
17346;DHT22;8790;53.590;10.002;2023-05-09T13:29:00;20.80;87.10
17346;DHT22;8790;53.590;10.002;2023-05-09T13:31:33;20.90;86.80
17346;DHT22;8790;53.590;10.002;2023-05-09T13:34:05;20.90;86.20
17346;DHT22;8790;53.590;10.002;2023-05-09T13:36:37;21.00;86.50
17346;DHT22;8790;53.590;10.002;2023-05-09T13:39:09;21.00;86.90
17346;DHT22;8790;53.590;10.002;2023-05-09T13:41:40;21.00;87.00
17346;DHT22;8790;53.590;10.002;2023-05-09T13:44:12;21.10;86.70
17346;DHT22;8790;53.590;10.002;2023-05-09T13:46:45;21.20;86.20
17346;DHT22;8790;53.590;10.002;2023-05-09T13:49:17;21.20;87.00
17346;DHT22;8790;53.590;10.002;2023-05-09T13:51:49;21.30;85.70
17346;DHT22;8790;53.590;10.002;2023-05-09T13:54:20;21.30;85.90
17346;DHT22;8790;53.590;10.002;2023-05-09T13:56:52;21.30;85.80
17346;DHT22;8790;53.590;10.002;2023-05-09T13:59:24;21.40;85.80
17346;DHT22;8790;53.590;10.002;2023-05-09T14:01:57;21.60;86.30
17346;DHT22;8790;53.590;10.002;2023-05-09T14:04:30;21.60;85.70
17346;DHT22;8790;53.590;10.002;2023-05-09T14:07:02;21.90;84.70
17346;DHT22;8790;53.590;10.002;2023-05-09T14:09:34;21.90;84.00
17346;DHT22;8790;53.590;10.002;2023-05-09T14:12:09;22.00;83.70
17346;DHT22;8790;53.590;10.002;2023-05-09T14:14:41;22.10;83.30
17346;DHT22;8790;53.590;10.002;2023-05-09T14:17:14;22.20;84.20
17346;DHT22;8790;53.590;10.002;2023-05-09T14:19:45;22.30;83.00
17346;DHT22;8790;53.590;10.002;2023-05-09T14:22:17;22.40;82.40
17346;DHT22;8790;53.590;10.002;2023-05-09T14:24:49;22.50;81.40
17346;DHT22;8790;53.590;10.002;2023-05-09T14:27:21;22.70;80.60
17346;DHT22;8790;53.590;10.002;2023-05-09T14:29:53;22.70;80.60
17346;DHT22;8790;53.590;10.002;2023-05-09T14:32:27;22.90;80.70
17346;DHT22;8790;53.590;10.002;2023-05-09T14:34:58;22.80;80.20
17346;DHT22;8790;53.590;10.002;2023-05-09T14:37:30;23.00;80.80
17346;DHT22;8790;53.590;10.002;2023-05-09T14:40:02;23.00;80.50
17346;DHT22;8790;53.590;10.002;2023-05-09T14:42:35;23.00;80.30
17346;DHT22;8790;53.590;10.002;2023-05-09T14:45:08;23.10;80.90
17346;DHT22;8790;53.590;10.002;2023-05-09T14:47:43;23.00;80.10
17346;DHT22;8790;53.590;10.002;2023-05-09T14:50:15;23.00;80.50
17346;DHT22;8790;53.590;10.002;2023-05-09T14:52:47;22.90;80.10
17346;DHT22;8790;53.590;10.002;2023-05-09T14:55:19;22.90;80.00
17346;DHT22;8790;53.590;10.002;2023-05-09T14:57:52;23.00;80.10
17346;DHT22;8790;53.590;10.002;2023-05-09T15:00:24;23.00;79.80
17346;DHT22;8790;53.590;10.002;2023-05-09T15:02:57;23.00;79.50
17346;DHT22;8790;53.590;10.002;2023-05-09T15:05:29;23.00;79.60
17346;DHT22;8790;53.590;10.002;2023-05-09T15:08:01;23.10;79.10
17346;DHT22;8790;53.590;10.002;2023-05-09T15:10:33;23.00;78.80
17346;DHT22;8790;53.590;10.002;2023-05-09T15:13:05;22.90;78.70
17346;DHT22;8790;53.590;10.002;2023-05-09T15:15:37;22.90;79.30
17346;DHT22;8790;53.590;10.002;2023-05-09T15:18:10;22.80;79.00
17346;DHT22;8790;53.590;10.002;2023-05-09T15:20:43;22.60;78.40
17346;DHT22;8790;53.590;10.002;2023-05-09T15:23:14;22.60;78.40
17346;DHT22;8790;53.590;10.002;2023-05-09T15:25:46;22.50;78.70
17346;DHT22;8790;53.590;10.002;2023-05-09T15:28:18;22.40;78.00
17346;DHT22;8790;53.590;10.002;2023-05-09T15:30:50;22.30;78.20
17346;DHT22;8790;53.590;10.002;2023-05-09T15:33:23;22.30;77.90
17346;DHT22;8790;53.590;10.002;2023-05-09T15:35:56;22.30;78.10
17346;DHT22;8790;53.590;10.002;2023-05-09T15:38:29;22.20;78.40
17346;DHT22;8790;53.590;10.002;2023-05-09T15:41:01;22.10;78.20
17346;DHT22;8790;53.590;10.002;2023-05-09T15:43:32;22.00;78.30
17346;DHT22;8790;53.590;10.002;2023-05-09T15:46:04;21.90;78.50
17346;DHT22;8790;53.590;10.002;2023-05-09T15:48:38;21.90;79.10
17346;DHT22;8790;53.590;10.002;2023-05-09T15:51:09;21.90;78.50
17346;DHT22;8790;53.590;10.002;2023-05-09T15:53:43;21.80;78.60
17346;DHT22;8790;53.590;10.002;2023-05-09T15:56:15;21.80;78.40
17346;DHT22;8790;53.590;10.002;2023-05-09T15:58:46;21.70;78.80
17346;DHT22;8790;53.590;10.002;2023-05-09T16:01:18;21.70;78.50
17346;DHT22;8790;53.590;10.002;2023-05-09T16:03:52;21.70;79.00
17346;DHT22;8790;53.590;10.002;2023-05-09T16:06:23;21.60;78.90